createdAt,value
2023-08-24T00:01:13.319Z,26.64
2023-08-24T00:03:42.307Z,26.70
2023-08-24T00:06:10.416Z,26.71
2023-08-24T00:08:38.151Z,26.66
2023-08-24T00:11:06.697Z,26.54
2023-08-24T00:13:34.519Z,26.52
2023-08-24T00:16:02.180Z,26.56
2023-08-24T00:18:31.230Z,26.65
2023-08-24T00:20:59.242Z,26.57
2023-08-24T00:23:27.401Z,26.41
2023-08-24T00:25:54.952Z,26.38
2023-08-24T00:28:22.511Z,26.37
2023-08-24T00:30:50.102Z,26.51
2023-08-24T00:33:17.682Z,26.53
2023-08-24T00:35:46.615Z,26.41
2023-08-24T00:38:14.234Z,26.36
2023-08-24T00:40:43.832Z,26.30
2023-08-24T00:43:11.423Z,26.29
2023-08-24T00:45:39.343Z,26.31
2023-08-24T00:48:07.709Z,26.39
2023-08-24T00:50:35.821Z,26.44
2023-08-24T00:53:05.576Z,26.51
2023-08-24T00:55:34.135Z,26.61
2023-08-24T00:58:02.011Z,26.53
2023-08-24T01:00:29.790Z,26.58
2023-08-24T01:02:57.573Z,26.60
2023-08-24T01:05:25.709Z,26.50
2023-08-24T01:07:53.486Z,26.40
2023-08-24T01:10:22.701Z,26.43
2023-08-24T01:13:07.418Z,26.30
2023-08-24T01:15:40.805Z,26.21
2023-08-24T01:18:16.310Z,26.09
2023-08-24T01:20:45.736Z,26.02
2023-08-24T01:23:29.801Z,26.05
2023-08-24T01:26:06.140Z,25.90
2023-08-24T01:28:34.320Z,25.91
2023-08-24T01:31:02.535Z,25.84
2023-08-24T01:33:30.163Z,25.88
2023-08-24T01:35:57.793Z,25.92
2023-08-24T01:38:25.587Z,25.93
2023-08-24T01:40:59.201Z,25.88
2023-08-24T01:43:44.031Z,25.81
2023-08-24T01:46:16.019Z,25.83
2023-08-24T01:48:45.247Z,25.81
2023-08-24T01:51:13.989Z,25.66
2023-08-24T01:53:43.271Z,25.64
2023-08-24T01:56:12.151Z,25.77
2023-08-24T01:58:41.600Z,25.63
2023-08-24T02:01:09.822Z,25.67
2023-08-24T02:03:37.590Z,25.68
2023-08-24T02:06:06.242Z,25.79
2023-08-24T02:08:33.829Z,25.74
2023-08-24T02:11:01.556Z,25.63
2023-08-24T02:13:29.512Z,25.67
2023-08-24T02:16:05.299Z,25.55
2023-08-24T02:18:33.193Z,25.57
2023-08-24T02:21:00.829Z,25.55
2023-08-24T02:23:28.560Z,25.58
2023-08-24T02:25:58.616Z,25.46
2023-08-24T02:28:26.379Z,25.42
2023-08-24T02:30:54.134Z,25.46
2023-08-24T02:33:23.117Z,25.45
2023-08-24T02:35:50.728Z,25.46
2023-08-24T02:38:18.333Z,25.57
2023-08-24T02:40:46.328Z,25.72
2023-08-24T02:43:14.282Z,25.62
2023-08-24T02:45:41.923Z,25.55
2023-08-24T02:48:10.651Z,25.55
2023-08-24T02:50:39.680Z,25.67
2023-08-24T02:53:07.270Z,25.67
2023-08-24T02:55:35.193Z,25.53
2023-08-24T02:58:02.792Z,25.50
2023-08-24T03:00:30.417Z,25.36
2023-08-24T03:02:58.078Z,25.31
2023-08-24T03:05:25.984Z,25.22
2023-08-24T03:07:55.178Z,25.18
2023-08-24T03:10:22.819Z,25.15
2023-08-24T03:12:50.522Z,25.10
2023-08-24T03:15:18.607Z,25.12
2023-08-24T03:17:46.387Z,25.09
2023-08-24T03:20:14.975Z,25.08
2023-08-24T03:22:42.727Z,25.23
2023-08-24T03:25:11.750Z,25.23
2023-08-24T03:27:40.083Z,25.22
2023-08-24T03:30:09.405Z,25.18
2023-08-24T03:32:37.078Z,25.33
2023-08-24T03:35:05.216Z,25.27
2023-08-24T03:37:32.856Z,25.41
2023-08-24T03:40:00.655Z,25.34
2023-08-24T03:42:29.699Z,25.26
2023-08-24T03:44:57.321Z,24.76
2023-08-24T03:47:24.917Z,24.22
2023-08-24T03:49:52.640Z,23.94
2023-08-24T03:52:20.250Z,23.99
2023-08-24T03:54:48.106Z,23.92
2023-08-24T03:57:17.380Z,23.76
2023-08-24T03:59:46.635Z,23.39
2023-08-24T04:02:14.324Z,23.40
2023-08-24T04:04:41.902Z,23.43
2023-08-24T04:07:09.473Z,23.24
2023-08-24T04:09:37.112Z,23.03
2023-08-24T04:12:05.095Z,22.73
2023-08-24T04:14:32.735Z,22.88
2023-08-24T04:17:01.662Z,22.73
2023-08-24T04:19:29.226Z,22.70
2023-08-24T04:21:56.816Z,22.53
2023-08-24T04:24:26.246Z,22.63
2023-08-24T04:26:53.968Z,22.32
2023-08-24T04:29:21.901Z,22.36
2023-08-24T04:31:49.520Z,22.53
2023-08-24T04:34:18.487Z,22.43
2023-08-24T04:36:46.048Z,22.13
2023-08-24T04:39:13.710Z,21.98
2023-08-24T04:41:41.300Z,21.72
2023-08-24T04:44:09.437Z,21.98
2023-08-24T04:46:37.051Z,22.06
2023-08-24T04:49:05.057Z,22.13
2023-08-24T04:51:33.979Z,22.40
2023-08-24T04:54:01.629Z,22.31
2023-08-24T04:56:29.233Z,22.13
2023-08-24T04:58:57.869Z,22.15
2023-08-24T05:01:26.040Z,22.41
2023-08-24T05:03:54.005Z,22.50
2023-08-24T05:06:21.625Z,22.37
2023-08-24T05:08:50.771Z,22.46
2023-08-24T05:11:20.362Z,22.60
2023-08-24T05:13:48.361Z,22.57
2023-08-24T05:16:16.191Z,22.42
2023-08-24T05:18:43.863Z,22.61
2023-08-24T05:21:11.460Z,22.37
2023-08-24T05:23:39.088Z,22.13
2023-08-24T05:26:08.205Z,22.11
2023-08-24T05:28:35.789Z,22.37
2023-08-24T05:31:03.460Z,22.44
2023-08-24T05:33:32.166Z,22.50
2023-08-24T05:36:00.036Z,22.46
2023-08-24T05:38:27.817Z,22.66
2023-08-24T05:40:55.487Z,22.58
2023-08-24T05:43:24.422Z,22.78
2023-08-24T05:45:52.044Z,22.78
2023-08-24T05:48:19.690Z,22.87
2023-08-24T05:50:48.374Z,22.83
2023-08-24T05:53:16.395Z,22.49
2023-08-24T05:55:43.975Z,22.82
2023-08-24T05:58:11.561Z,22.55
2023-08-24T06:00:40.508Z,22.33
2023-08-24T06:03:08.210Z,22.23
2023-08-24T06:05:35.806Z,22.46
2023-08-24T06:08:03.399Z,22.69
2023-08-24T06:10:31.971Z,23.04
2023-08-24T06:12:59.578Z,23.55
2023-08-24T06:15:29.067Z,23.90
2023-08-24T06:17:59.993Z,23.74
2023-08-24T06:20:27.682Z,23.83
2023-08-24T06:22:56.727Z,24.08
2023-08-24T06:25:24.352Z,24.43
2023-08-24T06:27:52.320Z,24.64
2023-08-24T06:30:20.523Z,24.74
2023-08-24T06:32:48.128Z,24.85
2023-08-24T06:35:17.303Z,25.33
2023-08-24T06:37:45.054Z,25.82
2023-08-24T06:40:14.300Z,25.90
2023-08-24T06:42:41.880Z,26.04
2023-08-24T06:45:11.546Z,26.24
2023-08-24T06:47:39.405Z,26.49
2023-08-24T06:50:08.138Z,26.65
2023-08-24T06:52:37.073Z,26.65
2023-08-24T06:55:05.286Z,26.69
2023-08-24T06:57:32.953Z,26.76
2023-08-24T07:00:01.225Z,26.76
2023-08-24T07:02:29.468Z,26.75
2023-08-24T07:04:58.203Z,26.78
2023-08-24T07:07:26.488Z,26.64
2023-08-24T07:09:55.503Z,26.65
2023-08-24T07:12:23.111Z,26.72
2023-08-24T07:14:50.678Z,26.71
2023-08-24T07:17:19.120Z,26.95
2023-08-24T07:19:46.729Z,27.21
2023-08-24T07:22:14.587Z,27.43
2023-08-24T07:24:45.810Z,27.64
2023-08-24T07:27:15.825Z,27.62
2023-08-24T07:29:43.447Z,27.71
2023-08-24T07:32:11.166Z,27.82
2023-08-24T07:34:38.829Z,27.84
2023-08-24T07:37:06.449Z,28.01
2023-08-24T07:39:34.616Z,28.07
2023-08-24T07:42:02.199Z,28.22
2023-08-24T07:44:31.464Z,28.12
2023-08-24T07:46:59.053Z,28.32
2023-08-24T07:49:26.710Z,28.43
2023-08-24T07:51:54.368Z,28.59
2023-08-24T07:54:22.523Z,28.68
2023-08-24T07:56:50.084Z,28.86
2023-08-24T07:59:17.698Z,28.93
2023-08-24T08:01:46.736Z,28.98
2023-08-24T08:04:14.355Z,28.97
2023-08-24T08:06:41.928Z,28.72
2023-08-24T08:09:09.556Z,29.00
2023-08-24T08:11:37.254Z,29.09
2023-08-24T08:14:04.839Z,29.10
2023-08-24T08:16:32.854Z,29.18
2023-08-24T08:19:01.824Z,29.14
2023-08-24T08:21:30.376Z,29.37
2023-08-24T08:23:57.950Z,29.49
2023-08-24T08:26:25.590Z,29.54
2023-08-24T08:28:53.143Z,29.78
2023-08-24T08:31:22.397Z,29.87
2023-08-24T08:33:50.285Z,29.46
2023-08-24T08:36:19.259Z,29.97
2023-08-24T08:38:46.863Z,30.14
2023-08-24T08:41:14.932Z,30.28
2023-08-24T08:43:43.472Z,30.43
2023-08-24T08:46:12.847Z,30.48
2023-08-24T08:48:42.298Z,30.62
2023-08-24T08:51:11.483Z,30.33
2023-08-24T08:53:40.614Z,30.41
2023-08-24T08:56:09.760Z,30.86
2023-08-24T08:58:38.452Z,31.20
2023-08-24T09:01:06.926Z,31.24
2023-08-24T09:03:36.294Z,31.09
2023-08-24T09:06:03.942Z,30.87
2023-08-24T09:08:32.324Z,31.36
2023-08-24T09:11:01.903Z,31.68
2023-08-24T09:13:29.861Z,31.80
2023-08-24T09:16:05.475Z,31.81
2023-08-24T09:18:37.875Z,32.06
2023-08-24T09:21:10.552Z,32.07
2023-08-24T09:23:45.059Z,32.17
2023-08-24T09:26:14.082Z,32.28
2023-08-24T09:28:44.677Z,32.42
2023-08-24T09:31:14.214Z,32.50
2023-08-24T09:33:46.437Z,32.64
2023-08-24T09:36:16.400Z,32.55
2023-08-24T09:38:49.871Z,32.70
2023-08-24T09:41:18.832Z,32.69
2023-08-24T09:43:46.422Z,32.66
2023-08-24T09:46:14.016Z,32.75
2023-08-24T09:48:41.617Z,33.10
2023-08-24T09:51:10.513Z,33.08
2023-08-24T09:53:42.084Z,33.21
2023-08-24T09:56:10.800Z,33.15
2023-08-24T09:58:39.820Z,33.25
2023-08-24T10:01:07.770Z,33.08
2023-08-24T10:03:38.578Z,33.39
2023-08-24T10:06:09.480Z,33.45
2023-08-24T10:08:39.112Z,33.47
2023-08-24T10:11:08.086Z,33.53
2023-08-24T10:13:42.149Z,33.63
2023-08-24T10:16:10.951Z,33.79
2023-08-24T10:18:39.136Z,33.86
2023-08-24T10:21:07.015Z,33.78
2023-08-24T10:23:36.453Z,33.95
2023-08-24T10:26:05.464Z,34.10
2023-08-24T10:28:34.362Z,34.17
2023-08-24T10:31:04.617Z,34.08
2023-08-24T10:33:35.267Z,34.25
2023-08-24T10:36:06.856Z,34.34
2023-08-24T10:38:37.536Z,34.29
2023-08-24T10:41:06.122Z,34.44
2023-08-24T10:43:37.147Z,34.56
2023-08-24T10:46:06.575Z,34.67
2023-08-24T10:48:59.073Z,34.70
2023-08-24T10:51:27.230Z,34.76
2023-08-24T10:53:57.489Z,34.80
2023-08-24T10:56:33.249Z,34.67
2023-08-24T10:59:15.553Z,34.64
2023-08-24T11:01:56.758Z,34.82
2023-08-24T11:04:24.398Z,35.02
2023-08-24T11:06:56.799Z,35.11
2023-08-24T11:09:25.611Z,35.05
2023-08-24T11:12:01.112Z,35.15
2023-08-24T11:14:31.262Z,35.18
2023-08-24T11:17:03.495Z,34.81
2023-08-24T11:19:32.269Z,34.77
2023-08-24T11:22:00.940Z,35.06
2023-08-24T11:24:29.584Z,35.16
2023-08-24T11:26:57.359Z,35.22
2023-08-24T11:29:27.079Z,35.41
2023-08-24T11:31:55.233Z,35.51
2023-08-24T11:34:24.248Z,35.66
2023-08-24T11:36:52.253Z,35.82
2023-08-24T11:39:21.585Z,35.89
2023-08-24T11:42:00.185Z,35.90
2023-08-24T11:44:29.444Z,35.96
2023-08-24T11:46:59.275Z,36.01
2023-08-24T11:49:28.636Z,35.47
2023-08-24T11:51:56.813Z,35.72
2023-08-24T11:54:24.447Z,36.09
2023-08-24T11:56:52.039Z,36.28
2023-08-24T11:59:19.998Z,36.38
2023-08-24T12:01:49.124Z,36.40
2023-08-24T12:04:16.708Z,36.31
2023-08-24T12:06:45.677Z,36.38
2023-08-24T12:09:13.366Z,36.30
2023-08-24T12:11:41.081Z,36.62
2023-08-24T12:14:19.233Z,36.71
2023-08-24T12:16:47.245Z,36.90
2023-08-24T12:19:14.824Z,36.88
2023-08-24T12:21:47.506Z,37.01
2023-08-24T12:24:16.460Z,37.16
2023-08-24T12:26:44.234Z,37.25
2023-08-24T12:29:11.908Z,37.37
2023-08-24T12:31:45.097Z,37.41
2023-08-24T12:34:12.708Z,37.21
2023-08-24T12:36:42.356Z,37.30
2023-08-24T12:39:14.280Z,37.62
2023-08-24T12:41:41.863Z,37.80
2023-08-24T12:44:11.708Z,37.74
2023-08-24T12:46:40.478Z,38.05
2023-08-24T12:49:08.177Z,38.00
2023-08-24T12:51:35.748Z,37.86
2023-08-24T12:54:03.414Z,38.23
2023-08-24T12:56:32.473Z,38.57
2023-08-24T12:59:00.102Z,38.93
2023-08-24T13:01:27.926Z,39.09
2023-08-24T13:03:55.524Z,39.04
2023-08-24T13:06:25.015Z,39.18
2023-08-24T13:08:53.227Z,39.11
2023-08-24T13:11:21.037Z,39.30
2023-08-24T13:13:50.156Z,39.33
2023-08-24T13:16:17.868Z,39.46
2023-08-24T13:18:45.560Z,39.27
2023-08-24T13:21:14.008Z,39.57
2023-08-24T13:23:42.605Z,39.95
2023-08-24T13:26:20.105Z,40.41
2023-08-24T13:28:47.953Z,40.76
2023-08-24T13:31:17.020Z,41.06
2023-08-24T13:33:44.650Z,41.24
2023-08-24T13:36:12.238Z,41.27
2023-08-24T13:38:39.823Z,41.55
2023-08-24T13:41:07.373Z,41.97
2023-08-24T13:43:34.981Z,41.96
2023-08-24T13:46:04.582Z,42.07
2023-08-24T13:48:34.937Z,42.13
2023-08-24T13:51:02.820Z,42.11
2023-08-24T13:53:30.528Z,42.25
2023-08-24T13:55:58.138Z,42.50
2023-08-24T13:58:25.700Z,42.57
2023-08-24T14:00:57.195Z,42.50
2023-08-24T14:03:24.915Z,42.62
2023-08-24T14:05:58.329Z,42.95
2023-08-24T14:08:26.101Z,42.82
2023-08-24T14:10:53.922Z,43.01
2023-08-24T14:13:22.292Z,43.12
2023-08-24T14:15:50.920Z,43.03
2023-08-24T14:18:18.836Z,43.06
2023-08-24T14:20:46.404Z,43.03
2023-08-24T14:23:15.485Z,43.09
2023-08-24T14:25:43.144Z,43.32
2023-08-24T14:28:11.620Z,43.18
2023-08-24T14:30:41.086Z,43.69
2023-08-24T14:33:08.973Z,43.55
2023-08-24T14:35:37.087Z,43.41
2023-08-24T14:38:05.158Z,43.49
2023-08-24T14:40:34.318Z,43.83
2023-08-24T14:43:02.028Z,44.10
2023-08-24T14:45:30.044Z,44.00
2023-08-24T14:47:58.078Z,43.67
2023-08-24T14:50:26.085Z,43.61
2023-08-24T14:52:55.030Z,43.62
2023-08-24T14:55:22.676Z,43.56
2023-08-24T14:57:54.027Z,43.42
2023-08-24T15:00:22.107Z,43.29
2023-08-24T15:02:49.787Z,43.70
2023-08-24T15:05:18.168Z,43.63
2023-08-24T15:07:46.715Z,43.80
2023-08-24T15:10:14.352Z,43.52
2023-08-24T15:12:42.073Z,43.30
2023-08-24T15:15:11.846Z,43.07
2023-08-24T15:17:39.554Z,42.97
2023-08-24T15:20:08.334Z,42.72
2023-08-24T15:22:37.341Z,42.73
2023-08-24T15:25:05.886Z,42.76
2023-08-24T15:27:33.446Z,42.67
2023-08-24T15:30:02.085Z,42.44
2023-08-24T15:32:31.098Z,42.27
2023-08-24T15:34:58.680Z,41.77
2023-08-24T15:37:26.266Z,41.23
2023-08-24T15:39:53.838Z,41.65
2023-08-24T15:42:21.424Z,41.99
2023-08-24T15:44:49.103Z,42.17
2023-08-24T15:47:16.711Z,42.33
2023-08-24T15:49:45.753Z,42.43
2023-08-24T15:52:13.369Z,42.55
2023-08-24T15:54:40.983Z,42.59
2023-08-24T15:57:09.434Z,42.35
2023-08-24T15:59:37.059Z,42.05
2023-08-24T16:02:05.708Z,41.83
2023-08-24T16:04:33.322Z,41.66
2023-08-24T16:07:02.241Z,41.41
2023-08-24T16:09:29.824Z,41.23
2023-08-24T16:11:57.395Z,41.06
2023-08-24T16:14:25.107Z,40.87
2023-08-24T16:16:53.645Z,40.69
2023-08-24T16:19:22.397Z,40.11
2023-08-24T16:21:49.977Z,39.73
2023-08-24T16:24:18.934Z,39.27
2023-08-24T16:26:46.483Z,39.10
2023-08-24T16:29:14.167Z,38.93
2023-08-24T16:31:41.806Z,38.76
2023-08-24T16:34:09.532Z,38.56
2023-08-24T16:36:37.326Z,38.31
2023-08-24T16:39:05.116Z,38.11
2023-08-24T16:41:34.291Z,37.93
2023-08-24T16:44:01.853Z,37.63
2023-08-24T16:46:30.899Z,37.35
2023-08-24T16:48:58.511Z,37.15
2023-08-24T16:51:27.003Z,37.00
2023-08-24T16:53:54.575Z,36.72
2023-08-24T16:56:22.151Z,36.01
2023-08-24T16:58:51.146Z,35.62
2023-08-24T17:01:18.768Z,35.74
2023-08-24T17:03:46.558Z,35.77
2023-08-24T17:06:14.221Z,35.77
2023-08-24T17:08:41.811Z,35.65
2023-08-24T17:11:09.394Z,35.56
2023-08-24T17:13:36.963Z,35.49
2023-08-24T17:16:07.116Z,35.40
2023-08-24T17:18:35.215Z,35.20
2023-08-24T17:21:04.623Z,35.14
2023-08-24T17:23:32.260Z,35.10
2023-08-24T17:26:00.060Z,35.07
2023-08-24T17:28:28.763Z,35.05
2023-08-24T17:30:56.376Z,35.07
2023-08-24T17:33:25.588Z,35.03
2023-08-24T17:35:54.124Z,35.01
2023-08-24T17:38:22.310Z,34.92
2023-08-24T17:40:49.900Z,34.89
2023-08-24T17:43:17.460Z,34.85
2023-08-24T17:45:45.045Z,34.80
2023-08-24T17:48:12.676Z,34.75
2023-08-24T17:50:42.375Z,34.71
2023-08-24T17:53:11.110Z,34.71
2023-08-24T17:55:38.657Z,34.65
2023-08-24T17:58:06.272Z,34.56
2023-08-24T18:00:33.843Z,34.50
2023-08-24T18:03:01.523Z,34.11
2023-08-24T18:05:29.175Z,33.12
2023-08-24T18:07:58.320Z,32.55
2023-08-24T18:10:25.885Z,32.54
2023-08-24T18:12:53.457Z,32.34
2023-08-24T18:15:31.930Z,32.00
2023-08-24T18:18:01.444Z,31.42
2023-08-24T18:20:29.121Z,31.47
2023-08-24T18:22:58.599Z,30.79
2023-08-24T18:25:26.931Z,30.24
2023-08-24T18:27:55.624Z,29.70
2023-08-24T18:30:23.551Z,29.91
2023-08-24T18:32:51.224Z,30.11
2023-08-24T18:35:19.678Z,30.23
2023-08-24T18:37:47.375Z,29.91
2023-08-24T18:40:16.339Z,29.85
2023-08-24T18:42:43.896Z,30.13
2023-08-24T18:45:11.996Z,29.56
2023-08-24T18:47:40.654Z,30.05
2023-08-24T18:50:08.731Z,30.13
2023-08-24T18:52:36.304Z,30.11
2023-08-24T18:55:04.039Z,29.97
2023-08-24T18:57:33.031Z,30.24
2023-08-24T19:00:00.623Z,30.01
2023-08-24T19:02:28.314Z,30.15
2023-08-24T19:04:56.038Z,29.66
2023-08-24T19:07:23.633Z,29.78
2023-08-24T19:09:51.216Z,29.93
2023-08-24T19:12:18.808Z,30.04
2023-08-24T19:14:47.745Z,30.18
2023-08-24T19:17:15.317Z,30.17
2023-08-24T19:19:42.890Z,30.24
2023-08-24T19:22:10.482Z,30.27
2023-08-24T19:24:38.071Z,30.42
2023-08-24T19:27:06.125Z,30.42
2023-08-24T19:29:33.695Z,30.30
2023-08-24T19:32:02.628Z,30.09
2023-08-24T19:34:30.280Z,30.06
2023-08-24T19:36:57.853Z,29.86
2023-08-24T19:39:25.419Z,29.85
2023-08-24T19:41:59.785Z,29.46
2023-08-24T19:44:28.121Z,29.27
2023-08-24T19:46:55.736Z,29.23
2023-08-24T19:49:24.947Z,29.34
2023-08-24T19:51:52.806Z,29.50
2023-08-24T19:54:20.617Z,29.54
2023-08-24T19:56:48.301Z,29.26
2023-08-24T19:59:15.987Z,29.25
2023-08-24T20:01:43.848Z,29.45
2023-08-24T20:04:11.568Z,29.54
2023-08-24T20:06:41.455Z,29.46
2023-08-24T20:09:13.188Z,29.46
2023-08-24T20:11:40.904Z,29.42
2023-08-24T20:14:09.590Z,29.51
2023-08-24T20:16:37.150Z,29.31
2023-08-24T20:19:04.993Z,29.30
2023-08-24T20:21:33.873Z,29.23
2023-08-24T20:24:02.783Z,29.25
2023-08-24T20:26:30.359Z,29.39
2023-08-24T20:28:57.969Z,29.25
2023-08-24T20:31:25.605Z,29.21
2023-08-24T20:33:53.226Z,29.18
2023-08-24T20:36:20.797Z,29.05
2023-08-24T20:38:48.351Z,29.17
2023-08-24T20:41:17.282Z,29.22
2023-08-24T20:43:46.335Z,29.22
2023-08-24T20:46:13.993Z,29.25
2023-08-24T20:48:41.578Z,29.28
2023-08-24T20:51:09.171Z,29.29
2023-08-24T20:53:36.726Z,29.31
2023-08-24T20:56:04.948Z,29.31
2023-08-24T20:58:33.880Z,29.33
2023-08-24T21:01:06.330Z,29.31
2023-08-24T21:03:34.126Z,29.28
2023-08-24T21:06:01.840Z,29.24
2023-08-24T21:08:29.638Z,29.27
2023-08-24T21:10:59.518Z,29.28
2023-08-24T21:13:27.131Z,29.23
2023-08-24T21:16:00.409Z,29.07
2023-08-24T21:18:28.048Z,29.04
2023-08-24T21:20:59.732Z,28.96
2023-08-24T21:23:27.532Z,29.02
2023-08-24T21:25:55.134Z,28.98
2023-08-24T21:28:22.693Z,28.94
2023-08-24T21:30:50.519Z,28.88
2023-08-24T21:33:19.909Z,28.82
2023-08-24T21:35:47.486Z,28.75
2023-08-24T21:38:15.060Z,28.76
2023-08-24T21:40:42.753Z,28.91
2023-08-24T21:43:10.311Z,28.85
2023-08-24T21:45:37.966Z,28.76
2023-08-24T21:48:06.637Z,28.54
2023-08-24T21:50:37.100Z,28.39
2023-08-24T21:53:05.168Z,28.61
2023-08-24T21:55:37.522Z,28.72
2023-08-24T21:58:05.594Z,28.70
2023-08-24T22:00:33.348Z,28.61
2023-08-24T22:03:00.988Z,28.67
2023-08-24T22:05:28.646Z,28.61
2023-08-24T22:07:57.611Z,28.54
2023-08-24T22:10:25.294Z,28.43
2023-08-24T22:12:52.949Z,28.53
2023-08-24T22:15:20.522Z,28.48
2023-08-24T22:17:48.230Z,28.43
2023-08-24T22:20:18.669Z,28.36
2023-08-24T22:22:46.241Z,28.27
2023-08-24T22:25:15.158Z,28.15
2023-08-24T22:27:42.732Z,28.08
2023-08-24T22:30:11.569Z,28.05
2023-08-24T22:32:39.190Z,28.19
2023-08-24T22:35:08.186Z,28.17
2023-08-24T22:37:36.457Z,28.05
2023-08-24T22:40:10.320Z,27.98
2023-08-24T22:42:39.385Z,27.65
2023-08-24T22:45:08.292Z,27.07
2023-08-24T22:47:35.109Z,27.46
2023-08-24T22:50:07.637Z,27.06
2023-08-24T22:52:35.260Z,26.52
2023-08-24T22:55:03.651Z,26.82
2023-08-24T22:57:31.452Z,27.11
2023-08-24T23:00:00.511Z,27.40
2023-08-24T23:02:28.219Z,27.44
2023-08-24T23:04:55.912Z,27.45
2023-08-24T23:07:23.695Z,27.33
2023-08-24T23:09:51.293Z,27.30
2023-08-24T23:12:22.461Z,27.29
2023-08-24T23:14:50.506Z,27.28
2023-08-24T23:17:19.826Z,27.34
2023-08-24T23:19:47.481Z,27.47
2023-08-24T23:22:15.572Z,27.38
2023-08-24T23:24:51.349Z,27.38
2023-08-24T23:27:19.537Z,27.31
2023-08-24T23:29:48.209Z,26.63
2023-08-24T23:32:17.699Z,26.77
2023-08-24T23:34:46.914Z,26.92
2023-08-24T23:37:14.447Z,27.05
2023-08-24T23:39:42.086Z,27.03
2023-08-24T23:42:09.671Z,27.12
2023-08-24T23:44:37.233Z,27.14
2023-08-24T23:47:05.130Z,27.03
2023-08-24T23:49:32.821Z,26.99
2023-08-24T23:52:01.807Z,26.93
2023-08-24T23:54:29.410Z,26.89
2023-08-24T23:56:57.036Z,26.82
2023-08-24T23:59:24.619Z,26.70
